createdAt,value
2022-09-10T00:01:43.274Z,10.43
2022-09-10T00:04:15.745Z,10.40
2022-09-10T00:06:46.143Z,9.63
2022-09-10T00:09:16.069Z,9.55
2022-09-10T00:11:46.169Z,10.18
2022-09-10T00:14:20.054Z,10.63
2022-09-10T00:16:49.865Z,11.23
2022-09-10T00:19:22.303Z,10.48
2022-09-10T00:21:52.199Z,10.68
2022-09-10T00:24:22.960Z,10.20
2022-09-10T00:26:53.371Z,9.57
2022-09-10T13:14:32.360Z,41.45
2022-09-10T13:17:01.566Z,34.80
2022-09-10T13:20:06.820Z,25.38
2022-09-10T13:22:59.446Z,25.17
2022-09-10T13:25:35.645Z,28.95
2022-09-10T13:28:26.605Z,25.45
2022-09-10T13:31:05.432Z,26.05
2022-09-10T13:33:45.949Z,26.98
2022-09-10T13:36:27.107Z,28.75
2022-09-10T13:39:46.679Z,29.10
2022-09-10T13:42:35.774Z,29.92
2022-09-10T13:45:23.862Z,34.67
2022-09-10T13:48:02.693Z,35.75
2022-09-10T13:50:41.356Z,39.45
2022-09-10T13:53:14.107Z,39.67
2022-09-10T13:55:54.949Z,41.10
2022-09-10T13:58:28.966Z,39.42
2022-09-10T14:01:00.503Z,48.03
2022-09-10T14:03:34.876Z,43.90
2022-09-10T14:06:05.605Z,42.17
2022-09-10T14:08:38.939Z,47.08
2022-09-10T14:11:16.033Z,46.92
2022-09-10T14:13:48.906Z,50.50
2022-09-10T14:16:27.243Z,52.03
2022-09-10T14:19:03.597Z,53.08
2022-09-10T14:21:33.307Z,47.83
2022-09-10T14:24:02.633Z,51.58
2022-09-10T14:26:34.151Z,52.38
2022-09-10T14:29:05.007Z,51.22
2022-09-10T14:31:38.044Z,53.97
2022-09-10T14:34:34.093Z,56.63
2022-09-10T14:37:03.851Z,66.10
2022-09-10T14:39:33.721Z,81.20
2022-09-10T14:42:31.182Z,82.38
2022-09-10T14:45:00.432Z,77.03
2022-09-10T14:47:35.213Z,78.05
2022-09-10T14:50:32.720Z,77.85
2022-09-10T14:53:02.577Z,65.47
2022-09-10T14:55:34.506Z,83.07
2022-09-10T14:58:03.719Z,55.72
2022-09-10T15:00:33.020Z,53.28
2022-09-10T15:03:04.768Z,51.17
2022-09-10T15:05:35.543Z,58.50
2022-09-10T15:08:05.047Z,60.10
2022-09-10T15:10:34.241Z,58.05
2022-09-10T15:13:03.484Z,56.38
2022-09-10T15:15:32.679Z,53.83
2022-09-10T15:18:01.889Z,50.97
2022-09-10T15:20:31.846Z,53.08
2022-09-10T15:23:02.637Z,52.60
2022-09-10T15:25:38.572Z,52.05
2022-09-10T15:28:08.828Z,51.85
2022-09-10T15:30:38.148Z,49.45
2022-09-10T15:33:08.531Z,50.95
2022-09-10T15:35:40.268Z,50.75
2022-09-10T15:38:11.573Z,50.85
2022-09-10T15:40:40.814Z,52.53
2022-09-10T15:43:10.011Z,50.75
2022-09-10T15:45:40.281Z,52.00
2022-09-10T15:48:09.399Z,51.05
2022-09-10T15:50:39.582Z,50.22
2022-09-10T15:53:12.072Z,48.35
2022-09-10T15:55:41.366Z,48.58
2022-09-10T15:58:10.518Z,49.90
2022-09-10T16:00:39.690Z,41.92
2022-09-10T16:03:08.894Z,47.33
2022-09-10T16:05:39.178Z,47.30
2022-09-10T16:08:08.343Z,45.10
2022-09-10T16:10:42.576Z,44.63
2022-09-10T16:13:11.794Z,45.67
2022-09-10T16:15:41.079Z,45.45
2022-09-10T16:18:10.263Z,44.40
2022-09-10T16:20:39.954Z,45.40
2022-09-10T16:23:09.498Z,47.08
2022-09-10T16:25:39.841Z,45.72
2022-09-10T16:28:10.945Z,46.83
2022-09-10T16:30:40.637Z,44.17
2022-09-10T16:33:10.430Z,46.83
2022-09-10T16:35:39.663Z,43.63
2022-09-10T16:38:09.823Z,69.75
2022-09-10T16:40:39.020Z,51.45
2022-09-10T16:43:08.325Z,61.88
2022-09-10T16:45:38.951Z,57.00
2022-09-10T16:48:08.150Z,53.45
2022-09-10T16:50:37.690Z,51.58
2022-09-10T16:53:11.413Z,44.25
2022-09-10T16:55:41.279Z,42.20
2022-09-10T16:58:11.333Z,50.67
2022-09-10T17:00:43.314Z,44.85
2022-09-10T17:03:12.618Z,48.33
2022-09-10T17:05:41.890Z,46.50
2022-09-10T17:08:15.467Z,46.72
2022-09-10T17:10:45.157Z,42.90
2022-09-10T17:13:14.570Z,47.22
2022-09-10T17:15:45.845Z,47.20
2022-09-10T17:18:15.743Z,41.95
2022-09-10T17:20:45.238Z,44.92
2022-09-10T17:23:14.555Z,45.13
2022-09-10T17:25:43.729Z,44.00
2022-09-10T17:28:13.354Z,41.35
2022-09-10T17:30:46.108Z,39.20
2022-09-10T17:33:16.566Z,38.63
2022-09-10T17:35:46.079Z,38.28
2022-09-10T17:38:15.187Z,40.00
2022-09-10T17:40:44.747Z,35.90
2022-09-10T17:43:14.238Z,35.00
2022-09-10T17:45:44.926Z,39.47
2022-09-10T17:48:14.214Z,38.25
2022-09-10T17:50:49.096Z,40.60
2022-09-10T17:53:18.470Z,43.00
2022-09-10T17:55:48.123Z,44.60
2022-09-10T17:58:17.602Z,43.08
2022-09-10T18:00:49.094Z,44.40
2022-09-10T18:03:19.557Z,42.78
2022-09-10T18:05:48.721Z,42.83
2022-09-10T18:08:18.192Z,42.47
2022-09-10T18:10:47.570Z,42.72
2022-09-10T18:13:17.076Z,45.08
2022-09-10T18:15:47.945Z,42.97
2022-09-10T18:18:17.155Z,46.45
2022-09-10T18:20:46.510Z,47.67
2022-09-10T18:23:16.360Z,43.50
2022-09-10T18:25:49.656Z,47.90
2022-09-10T18:28:19.191Z,45.42
2022-09-10T18:30:50.051Z,46.28
2022-09-10T18:33:19.332Z,43.90
2022-09-10T18:35:50.662Z,41.40
2022-09-10T18:38:19.972Z,39.33
2022-09-10T18:40:49.373Z,41.50
2022-09-10T18:43:18.725Z,41.25
2022-09-10T18:45:49.441Z,38.40
2022-09-10T18:48:18.875Z,36.28
2022-09-10T18:50:49.273Z,35.80
2022-09-10T18:53:18.819Z,33.88
2022-09-10T18:55:47.967Z,34.88
2022-09-10T18:58:17.143Z,32.83
2022-09-10T19:00:46.337Z,32.58
2022-09-10T19:03:17.014Z,32.97
2022-09-10T19:05:46.166Z,32.45
2022-09-10T19:08:17.887Z,31.70
2022-09-10T19:10:47.107Z,31.05
2022-09-10T19:13:16.297Z,32.33
2022-09-10T19:15:45.526Z,30.30
2022-09-10T19:18:16.258Z,32.83
2022-09-10T19:20:45.502Z,31.13
2022-09-10T19:23:19.793Z,30.25
2022-09-10T19:25:54.358Z,30.88
2022-09-10T19:28:24.164Z,30.40
2022-09-10T19:30:53.785Z,29.98
2022-09-10T19:33:24.492Z,32.13
2022-09-10T19:35:56.612Z,32.35
2022-09-10T19:38:46.851Z,30.77
2022-09-10T19:41:19.298Z,32.47
2022-09-10T19:43:51.086Z,32.63
2022-09-10T19:46:22.349Z,31.63
2022-09-10T19:48:53.679Z,29.58
2022-09-10T19:51:23.947Z,28.40
2022-09-10T19:53:53.621Z,28.52
2022-09-10T19:56:25.611Z,26.98
2022-09-10T19:58:57.190Z,26.75
2022-09-10T20:01:28.307Z,26.48
2022-09-10T20:04:00.400Z,24.58
2022-09-10T20:06:35.972Z,26.13
2022-09-10T20:09:06.450Z,22.88
2022-09-10T20:11:36.813Z,24.48
2022-09-10T20:14:08.707Z,22.25
2022-09-10T20:16:39.267Z,23.27
2022-09-10T20:19:11.331Z,24.83
2022-09-10T20:21:40.578Z,22.45
2022-09-10T20:24:10.177Z,23.05
2022-09-10T20:26:41.522Z,23.05
2022-09-10T20:29:13.907Z,22.45
2022-09-10T20:31:44.179Z,21.25
2022-09-10T20:34:16.056Z,22.02
2022-09-10T20:36:45.579Z,20.88
2022-09-10T20:39:16.495Z,20.92
2022-09-10T20:41:45.913Z,21.85
2022-09-10T20:44:17.808Z,22.05
2022-09-10T20:46:47.209Z,20.92
2022-09-10T20:49:18.378Z,19.10
2022-09-10T20:51:47.525Z,20.25
2022-09-10T20:54:18.956Z,20.90
2022-09-10T20:56:48.850Z,19.73
2022-09-10T20:59:20.865Z,18.92
2022-09-10T21:01:52.793Z,18.95
2022-09-10T21:04:23.893Z,20.48
2022-09-10T21:06:53.030Z,19.88
2022-09-10T21:09:22.108Z,19.77
2022-09-10T21:11:51.235Z,20.17
2022-09-10T21:14:20.361Z,20.83
2022-09-10T21:16:49.468Z,19.83
2022-09-10T21:19:19.406Z,18.77
2022-09-10T21:21:50.396Z,19.15
2022-09-10T21:24:22.879Z,19.80
2022-09-10T21:26:53.674Z,18.83
2022-09-10T21:29:23.973Z,19.85
2022-09-10T21:31:55.061Z,18.63
2022-09-10T21:34:25.203Z,17.33
2022-09-10T21:36:55.864Z,16.48
2022-09-10T21:39:24.978Z,16.10
2022-09-10T21:41:54.144Z,14.80
2022-09-10T21:44:25.522Z,16.25
2022-09-10T21:46:55.001Z,16.17
2022-09-10T21:49:24.311Z,16.85
2022-09-10T21:52:01.969Z,16.25
2022-09-10T21:54:31.049Z,17.65
2022-09-10T21:57:00.173Z,15.05
2022-09-10T21:59:29.294Z,15.90
2022-09-10T22:01:58.569Z,13.98
2022-09-10T22:04:28.063Z,13.77
2022-09-10T22:06:59.091Z,15.77
2022-09-10T22:09:28.266Z,15.40
2022-09-10T22:11:59.649Z,15.85
2022-09-10T22:14:28.831Z,14.25
2022-09-10T22:16:59.213Z,15.20
2022-09-10T22:19:28.471Z,15.35
2022-09-10T22:21:59.106Z,14.27
2022-09-10T22:24:28.227Z,15.68
2022-09-10T22:26:57.354Z,15.80
2022-09-10T22:29:26.725Z,16.83
2022-09-10T22:31:56.021Z,13.38
2022-09-10T22:34:25.413Z,12.88
2022-09-10T22:36:54.601Z,11.90
2022-09-10T22:39:25.454Z,13.77
2022-09-10T22:41:54.562Z,13.15
2022-09-10T22:44:24.919Z,11.57
2022-09-10T22:46:54.052Z,12.27
2022-09-10T22:49:23.222Z,12.20
2022-09-10T22:51:52.294Z,12.75
2022-09-10T22:54:21.391Z,12.27
2022-09-10T22:56:51.924Z,12.52
2022-09-10T22:59:21.068Z,12.80
2022-09-10T23:01:50.271Z,12.02
2022-09-10T23:04:19.392Z,11.05
2022-09-10T23:06:48.552Z,12.65
2022-09-10T23:09:18.844Z,13.23
2022-09-10T23:11:48.066Z,11.90
2022-09-10T23:14:22.450Z,12.32
2022-09-10T23:16:52.612Z,13.27
2022-09-10T23:19:23.687Z,12.88
2022-09-10T23:21:56.704Z,12.27
2022-09-10T23:24:27.041Z,13.27
2022-09-10T23:26:56.518Z,12.65
2022-09-10T23:29:27.197Z,11.85
2022-09-10T23:31:56.331Z,11.85
2022-09-10T23:34:25.680Z,12.55
2022-09-10T23:36:54.848Z,13.43
2022-09-10T23:39:25.496Z,13.55
2022-09-10T23:41:57.417Z,12.63
2022-09-10T23:44:29.006Z,13.40
2022-09-10T23:46:58.085Z,12.85
2022-09-10T23:49:27.216Z,13.25
2022-09-10T23:51:56.419Z,13.25
2022-09-10T23:54:25.541Z,12.60
2022-09-10T23:56:54.666Z,12.70
2022-09-10T23:59:23.775Z,12.82
